createdAt,value
2022-10-02T00:02:21.394Z,3.80
2022-10-02T00:07:32.018Z,3.55
2022-10-02T00:12:36.914Z,3.40
2022-10-02T00:17:44.834Z,2.97
2022-10-02T00:22:54.589Z,2.78
2022-10-02T00:28:13.890Z,2.70
2022-10-02T00:33:28.476Z,2.75
2022-10-02T00:38:45.648Z,3.05
2022-10-02T00:44:01.197Z,2.60
2022-10-02T00:49:33.710Z,2.60
2022-10-02T00:55:04.296Z,2.40
2022-10-02T01:00:12.432Z,2.45
2022-10-02T01:05:15.433Z,2.60
2022-10-02T01:10:22.309Z,2.60
2022-10-02T01:15:31.307Z,2.72
2022-10-02T01:20:38.784Z,3.10
2022-10-02T01:25:43.207Z,2.60
2022-10-02T01:30:50.432Z,2.60
2022-10-02T01:35:53.661Z,2.40
2022-10-02T01:40:57.807Z,2.42
2022-10-02T01:46:22.107Z,2.10
2022-10-02T01:51:49.044Z,2.42
2022-10-02T01:57:03.456Z,2.67
2022-10-02T02:02:16.380Z,3.05
2022-10-02T02:07:27.077Z,3.60
2022-10-02T02:12:39.330Z,2.80
2022-10-02T02:17:49.327Z,2.78
2022-10-02T02:22:55.838Z,2.97
2022-10-02T02:28:04.478Z,3.10
2022-10-02T02:33:12.429Z,3.38
2022-10-02T02:38:23.112Z,2.53
2022-10-02T02:43:32.917Z,2.90
2022-10-02T02:48:43.749Z,2.20
2022-10-02T02:53:52.422Z,2.72
2022-10-02T02:59:01.915Z,3.53
2022-10-02T03:04:05.105Z,2.40
2022-10-02T03:09:12.509Z,2.70
2022-10-02T03:14:45.693Z,2.60
2022-10-02T03:19:53.822Z,2.35
2022-10-02T03:25:04.215Z,2.58
2022-10-02T03:30:11.240Z,2.58
2022-10-02T03:35:15.044Z,2.50
2022-10-02T03:40:17.892Z,3.13
2022-10-02T03:45:46.173Z,2.60
2022-10-02T03:50:45.130Z,2.60
2022-10-02T03:55:51.500Z,2.40
2022-10-02T04:01:00.597Z,2.35
2022-10-02T04:06:07.045Z,2.13
2022-10-02T04:11:16.671Z,2.50
2022-10-02T04:16:28.716Z,3.08
2022-10-02T04:21:39.018Z,3.10
2022-10-02T04:26:47.255Z,3.05
2022-10-02T04:31:55.201Z,3.00
2022-10-02T04:37:12.233Z,3.40
2022-10-02T04:42:25.654Z,3.58
2022-10-02T04:47:47.338Z,3.10
2022-10-02T04:53:12.103Z,3.78
2022-10-02T04:58:30.935Z,3.95
2022-10-02T05:09:08.264Z,3.35
2022-10-02T05:14:27.347Z,4.30
2022-10-02T05:19:43.691Z,3.78
2022-10-02T05:25:00.113Z,4.65
2022-10-02T05:30:08.334Z,4.50
2022-10-02T05:35:30.328Z,5.00
2022-10-02T05:40:37.589Z,5.15
2022-10-02T05:45:41.813Z,5.43
2022-10-02T05:50:50.294Z,5.25
2022-10-02T06:01:06.260Z,5.20
2022-10-02T06:06:17.606Z,4.80
2022-10-02T06:11:27.673Z,5.40
2022-10-02T06:16:37.593Z,4.53
2022-10-02T06:21:47.382Z,3.85
2022-10-02T06:26:56.876Z,3.55
2022-10-02T06:32:14.508Z,2.60
2022-10-02T06:37:41.229Z,2.08
2022-10-02T06:42:53.200Z,2.10
2022-10-02T06:48:05.382Z,1.92
2022-10-02T06:53:22.099Z,1.83
2022-10-02T06:58:36.279Z,1.73
2022-10-02T07:04:00.483Z,1.80
2022-10-02T07:09:27.109Z,2.20
2022-10-02T07:14:51.086Z,2.08
2022-10-02T07:20:11.596Z,1.80
2022-10-02T07:25:43.507Z,2.33
2022-10-02T07:30:57.463Z,2.25
2022-10-02T07:36:07.456Z,1.85
2022-10-02T07:41:23.128Z,2.70
2022-10-02T07:46:38.651Z,2.05
2022-10-02T07:51:50.759Z,2.58
2022-10-02T07:57:00.098Z,2.28
2022-10-02T08:02:08.775Z,2.55
2022-10-02T08:07:13.923Z,2.10
2022-10-02T08:12:28.803Z,2.00
2022-10-02T08:17:36.894Z,2.55
2022-10-02T08:22:43.823Z,2.63
2022-10-02T08:27:54.317Z,1.92
2022-10-02T08:32:57.744Z,2.20
2022-10-02T08:38:17.185Z,2.35
2022-10-02T08:44:20.281Z,2.47
2022-10-02T08:50:07.518Z,2.33
2022-10-02T08:55:32.851Z,2.50
2022-10-02T09:00:46.821Z,2.60
2022-10-02T09:06:15.574Z,2.42
2022-10-02T09:11:44.943Z,2.88
2022-10-02T09:17:30.642Z,3.08
2022-10-02T09:23:07.722Z,2.60
2022-10-02T09:29:03.847Z,4.72
2022-10-02T09:34:48.021Z,2.25
2022-10-02T09:40:32.927Z,2.90
2022-10-02T09:46:07.735Z,2.35
2022-10-02T09:51:44.054Z,2.63
2022-10-02T09:57:18.516Z,1.67
2022-10-02T10:03:02.768Z,4.40
2022-10-02T10:08:46.972Z,3.03
2022-10-02T10:14:24.501Z,2.10
2022-10-02T10:20:03.011Z,1.38
2022-10-02T10:25:23.646Z,1.63
2022-10-02T10:30:54.250Z,2.83
2022-10-02T10:36:33.733Z,1.83
2022-10-02T10:42:12.842Z,1.75
2022-10-02T10:47:38.602Z,1.90
2022-10-02T10:53:08.281Z,2.10
2022-10-02T10:58:21.213Z,2.05
2022-10-02T11:04:08.737Z,1.50
2022-10-02T11:09:53.693Z,2.20
2022-10-02T11:15:17.510Z,1.50
2022-10-02T11:20:32.762Z,1.60
2022-10-02T11:25:59.862Z,1.67
2022-10-02T11:31:22.955Z,2.03
2022-10-02T11:36:47.574Z,1.83
2022-10-02T11:42:21.057Z,2.00
2022-10-02T11:47:56.611Z,1.67
2022-10-02T11:53:23.330Z,1.50
2022-10-02T11:58:45.271Z,1.88
2022-10-02T12:03:58.654Z,1.90
2022-10-02T12:09:09.908Z,1.65
2022-10-02T12:14:26.518Z,1.77
2022-10-02T12:20:03.912Z,1.52
2022-10-02T12:25:42.771Z,1.92
2022-10-02T12:30:54.126Z,1.70
2022-10-02T12:36:24.453Z,1.75
2022-10-02T12:41:46.858Z,1.95
2022-10-02T12:47:14.853Z,2.22
2022-10-02T12:53:04.327Z,1.95
2022-10-02T13:03:48.870Z,3.05
2022-10-02T13:09:16.740Z,2.75
2022-10-02T13:14:41.903Z,1.67
2022-10-02T13:19:57.273Z,2.33
2022-10-02T13:25:24.062Z,2.17
2022-10-02T13:30:35.681Z,1.70
2022-10-02T13:36:04.541Z,2.45
2022-10-02T13:46:27.056Z,2.35
2022-10-02T13:51:38.344Z,1.73
2022-10-02T13:56:51.314Z,1.75
2022-10-02T14:02:07.849Z,1.77
2022-10-02T14:07:27.748Z,2.17
2022-10-02T14:12:39.305Z,2.05
2022-10-02T14:17:55.272Z,1.75
2022-10-02T14:23:14.889Z,2.00
2022-10-02T14:28:33.626Z,2.08
2022-10-02T14:33:58.012Z,1.80
2022-10-02T14:39:13.329Z,1.40
2022-10-02T14:44:30.632Z,2.13
2022-10-02T14:50:13.646Z,1.70
2022-10-02T14:55:28.175Z,1.95
2022-10-02T15:00:37.004Z,2.22
2022-10-02T15:05:55.822Z,2.35
2022-10-02T15:11:01.608Z,1.92
2022-10-02T15:16:32.780Z,2.33
2022-10-02T15:21:43.779Z,2.15
2022-10-02T15:26:51.488Z,2.22
2022-10-02T15:32:28.316Z,1.95
2022-10-02T15:37:41.213Z,1.70
2022-10-02T15:42:54.026Z,2.05
2022-10-02T15:48:13.632Z,2.40
2022-10-02T15:53:33.560Z,2.13
2022-10-02T15:59:02.938Z,2.72
2022-10-02T16:04:15.328Z,2.13
2022-10-02T16:09:40.305Z,2.50
2022-10-02T16:14:59.096Z,2.15
2022-10-02T16:20:27.000Z,2.00
2022-10-02T16:25:45.544Z,1.80
2022-10-02T16:31:12.926Z,2.08
2022-10-02T16:36:30.249Z,2.47
2022-10-02T16:41:38.607Z,2.35
2022-10-02T16:46:45.989Z,2.20
2022-10-02T16:51:58.233Z,2.92
2022-10-02T16:57:07.865Z,2.72
2022-10-02T17:02:20.075Z,2.30
2022-10-02T17:07:32.958Z,2.80
2022-10-02T17:12:46.360Z,3.50
2022-10-02T17:18:05.373Z,2.70
2022-10-02T17:23:17.812Z,2.53
2022-10-02T17:28:26.822Z,2.97
2022-10-02T17:33:45.101Z,3.28
2022-10-02T17:39:04.455Z,3.30
2022-10-02T17:44:17.327Z,3.00
2022-10-02T17:49:32.273Z,2.60
2022-10-02T17:55:10.875Z,2.75
2022-10-02T18:00:21.279Z,2.55
2022-10-02T18:05:33.827Z,2.60
2022-10-02T18:10:47.651Z,2.50
2022-10-02T18:16:22.204Z,3.15
2022-10-02T18:21:38.882Z,3.08
2022-10-02T18:27:07.096Z,2.97
2022-10-02T18:32:26.880Z,3.53
2022-10-02T18:37:54.771Z,2.90
2022-10-02T18:43:13.545Z,3.70
2022-10-02T18:48:38.543Z,2.92
2022-10-02T18:53:55.439Z,3.15
2022-10-02T18:59:12.719Z,3.28
2022-10-02T19:04:37.189Z,3.30
2022-10-02T19:09:42.385Z,3.88
2022-10-02T19:14:46.901Z,3.80
2022-10-02T19:19:49.651Z,3.08
2022-10-02T19:24:58.015Z,3.17
2022-10-02T19:35:12.174Z,3.35
2022-10-02T19:40:19.168Z,2.85
2022-10-02T19:45:26.581Z,3.00
2022-10-02T19:50:40.955Z,3.37
2022-10-02T19:55:47.323Z,2.80
2022-10-02T20:00:52.450Z,3.00
2022-10-02T20:06:00.868Z,3.00
2022-10-02T20:16:35.574Z,3.10
2022-10-02T20:21:41.244Z,3.30
2022-10-02T20:26:47.688Z,2.90
2022-10-02T20:31:54.206Z,2.78
2022-10-02T20:37:02.444Z,3.13
2022-10-02T20:42:13.417Z,3.15
2022-10-02T20:47:51.512Z,2.78
2022-10-02T20:53:38.925Z,3.17
2022-10-02T20:59:19.886Z,2.40
2022-10-02T21:04:55.483Z,2.85
2022-10-02T21:10:50.998Z,2.03
2022-10-02T21:16:21.479Z,3.55
2022-10-02T21:21:53.967Z,2.50
2022-10-02T21:27:27.684Z,2.50
2022-10-02T21:32:56.489Z,2.30
2022-10-02T21:38:22.198Z,2.00
2022-10-02T21:44:11.282Z,2.58
2022-10-02T21:49:42.972Z,2.45
2022-10-02T21:55:26.604Z,3.30
2022-10-02T22:00:31.159Z,2.70
2022-10-02T22:06:08.259Z,2.65
2022-10-02T22:11:23.989Z,2.63
2022-10-02T22:16:40.274Z,2.65
2022-10-02T22:22:01.779Z,2.63
2022-10-02T22:27:22.967Z,1.83
2022-10-02T22:33:06.488Z,2.08
2022-10-02T22:38:21.865Z,2.00
2022-10-02T22:43:31.850Z,2.30
2022-10-02T22:48:38.751Z,2.03
2022-10-02T22:53:49.215Z,2.60
2022-10-02T22:58:59.846Z,2.15
2022-10-02T23:04:08.972Z,2.30
2022-10-02T23:09:19.378Z,2.33
2022-10-02T23:14:29.890Z,2.03
2022-10-02T23:19:42.972Z,2.33
2022-10-02T23:24:52.409Z,2.65
2022-10-02T23:30:00.290Z,2.13
2022-10-02T23:35:12.773Z,2.00
2022-10-02T23:40:45.685Z,1.98
2022-10-02T23:45:55.978Z,2.75
2022-10-02T23:51:15.546Z,2.60
2022-10-02T23:56:43.042Z,2.90
